Thunder radar more information blitzortung!


Radar de pluja more information rain snow radar


Visita la nostra xarxa de llocs de meteo:

Template documentation
and downloads

And another site



No particular awareness of the weather is required.    There are no Weather-warnings

Pagina Historial Weather Underground text

Diari Resum Agost 31, 2017 Unitats:  Imperial    Mètric   Tant
« Previous Dia
SegĂźent Dia »
Diari Setmana Mensual Anual Personalitzada
  Maxima: Minima: Media:
Temperatura: 73 °F 64.8 °F 69.4 °F
Punt de rosada: 65.3 °F 59.5 °F 62.8 °F
Humitat: 88 % 73 % 80 %
Wind Speed: 12.7 mph 0 mph 3.8 mph
RĂ fegues de vent: 12.7 mph - -
Vent:- - ESE
Pression baro: 30.1 in 29.9 in -
Precipitacions: 0.21 in    
Historical Graphs
 
 
Dades de taula per Agost 31, 2017
Temps Temperatura Punt de rosada Pression baro Vent Wind Speed RĂ fegues de vent Humitat Rainfall Rate (Hourly)
00:00 69.3 °F 62.8 °F 29.9 in SSW 1 mph 2 mph 80 % 0 in
00:03 70.3 °F 62.4 °F 29.9 in SW 1.2 mph   76 % 0 in
00:08 70.3 °F 62.4 °F 29.9 in Calm     76 % 0 in
00:10 68.9 °F 62.4 °F 29.9 in Calm     80 % 0 in
00:20 68.9 °F 62.4 °F 29.9 in Calm     80 % 0 in
00:30 69.1 °F 62.6 °F 29.9 in Calm   1 mph 80 % 0 in
00:40 69.1 °F 62.6 °F 29.9 in Calm   2 mph 80 % 0 in
00:50 69.1 °F 62.6 °F 29.9 in Calm   1 mph 80 % 0 in
01:00 69.1 °F 62.6 °F 29.9 in Calm     80 % 0 in
01:10 69.1 °F 63 °F 29.9 in Calm     81 % 0 in
01:20 68.9 °F 62.8 °F 29.9 in WSW 1 mph 2 mph 81 % 0 in
01:30 68.9 °F 62.8 °F 29.9 in West 1 mph 1 mph 81 % 0 in
01:40 68.7 °F 62.8 °F 29.9 in Calm   1 mph 81 % 0 in
01:50 68.5 °F 62.4 °F 29.9 in Calm   1 mph 81 % 0 in
02:00 68.4 °F 62.6 °F 29.9 in WSW 1 mph 2 mph 82 % 0 in
02:10 67.8 °F 62.4 °F 29.9 in SW 1 mph 2 mph 83 % 0 in
02:20 67.8 °F 62.8 °F 29.9 in Calm   1 mph 84 % 0 in
02:30 68 °F 62.2 °F 29.9 in SW 2 mph 3 mph 82 % 0 in
02:40 67.8 °F 62.8 °F 29.9 in Calm   3 mph 84 % 0 in
02:50 68 °F 63.3 °F 29.9 in WNW 1 mph 1 mph 85 % 0 in
03:00 68 °F 63.3 °F 29.9 in Calm   1 mph 85 % 0 in
03:10 67.8 °F 63.1 °F 29.9 in NNE 3 mph 3 mph 85 % 0 in
03:20 67.8 °F 63.1 °F 29.9 in NE 2 mph 4 mph 85 % 0 in
03:30 67.8 °F 63.1 °F 29.9 in NE 1 mph 3 mph 85 % 0 in
03:40 67.8 °F 63.1 °F 29.9 in NNE 3 mph 4 mph 85 % 0 in
08:41 67.8 °F 63.9 °F 30 in WSW 4.6 mph 4.6 mph 87 % 0 in
08:42 67.8 °F 63.9 °F 30 in WSW 2.3 mph 2.3 mph 87 % 0 in
08:45 68 °F 64 °F 30 in WSW 1.2 mph   87 % 0 in
08:50 68 °F 64.2 °F 30 in Calm     88 % 0 in
08:55 68.2 °F 64.6 °F 30 in ENE 3.5 mph 3.5 mph 88 % 0 in
09:00 68 °F 64.2 °F 30 in East 2.3 mph 2.3 mph 88 % 0 in
09:05 68 °F 64.2 °F 30 in ENE 2.6 mph 2.6 mph 88 % 0 in
09:06 68 °F 64 °F 30 in ENE 2.3 mph 2.3 mph 87 % 0 in
09:11 68.4 °F 64.2 °F 30 in East 1.2 mph 1.4 mph 87 % 0 in
09:16 68.4 °F 64.2 °F 30 in ENE 3.5 mph 3.5 mph 87 % 0 in
09:21 68.2 °F 63.9 °F 30 in NNE 4.6 mph 4.6 mph 86 % 0 in
09:26 68.4 °F 64 °F 30 in NE 2.3 mph 2.3 mph 86 % 0 in
09:31 68.7 °F 64.8 °F 30 in North 2.3 mph 2.3 mph 87 % 0 in
09:36 68.7 °F 64.8 °F 30 in WNW 2.3 mph 2.3 mph 87 % 0 in
09:41 68.7 °F 64.8 °F 30 in WNW 1.2 mph   87 % 0 in
09:46 68.7 °F 64.8 °F 30 in NE 2 mph 2 mph 87 % 0 in
09:51 68.7 °F 64.4 °F 30 in Calm     86 % 0 in
09:56 68.9 °F 64.6 °F 30 in Calm     86 % 0 in
10:01 68.7 °F 64.4 °F 30 in NE 1.2 mph 1.2 mph 86 % 0 in
10:06 68.9 °F 64.6 °F 30 in Calm     86 % 0 in
10:11 69.1 °F 64.9 °F 30 in WSW 2.3 mph 2.3 mph 87 % 0 in
10:16 69.1 °F 64.9 °F 30 in SW 2.3 mph 2.3 mph 87 % 0 in
10:21 68.9 °F 64.6 °F 30 in SW 2.3 mph 2.3 mph 86 % 0 in
10:26 68.9 °F 64.9 °F 30 in SSW 2.3 mph 2.3 mph 87 % 0 in
10:31 69.1 °F 64.9 °F 30 in SSW 1.2 mph   87 % 0 in
10:36 69.1 °F 64.9 °F 30 in West 1.2 mph 1.2 mph 87 % 0 in
10:41 69.1 °F 64.9 °F 30 in WSW 0.9 mph   87 % 0 in
10:46 69.1 °F 64.8 °F 30 in Calm     86 % 0 in
10:51 69.3 °F 64.9 °F 30 in Calm     86 % 0 in
10:56 69.4 °F 65.1 °F 30 in NE 2.3 mph 2.3 mph 86 % 0 in
11:01 69.6 °F 65.1 °F 30 in NNE 3.3 mph 3.3 mph 86 % 0 in
11:06 69.8 °F 65.1 °F 30 in NNE 2.6 mph   85 % 0 in
11:11 69.4 °F 64.4 °F 30 in ENE 1.2 mph   84 % 0 in
11:16 69.4 °F 64 °F 30 in NNE 2.4 mph 2.4 mph 83 % 0 in
11:21 69.4 °F 63.7 °F 30 in Calm     82 % 0 in
11:26 69.8 °F 64 °F 30 in Calm     82 % 0 in
11:31 69.8 °F 64 °F 30 in WNW 1.2 mph   82 % 0 in
11:36 70 °F 64.2 °F 30 in WNW 1.4 mph   82 % 0 in
11:41 70.2 °F 64.4 °F 30 in West 2.3 mph 2.3 mph 82 % 0 in
11:46 70.3 °F 64.6 °F 30 in Calm     82 % 0 in
11:51 70.5 °F 64.4 °F 30 in SW 3.5 mph 3.5 mph 81 % 0 in
11:56 70.5 °F 64.4 °F 30 in West 2 mph 2 mph 81 % 0 in
12:01 70.7 °F 64.2 °F 30 in SW 1.2 mph 1.2 mph 80 % 0 in
12:06 70.9 °F 64.4 °F 30 in SW 1.4 mph 1.4 mph 80 % 0 in
12:11 71.1 °F 64.2 °F 30 in South 1.6 mph   79 % 0 in
12:16 71.1 °F 64.2 °F 30 in Calm     79 % 0 in
12:21 71.1 °F 63.9 °F 30 in Calm     78 % 0 in
12:26 71.2 °F 64 °F 30 in Calm     78 % 0 in
12:31 71.6 °F 64.8 °F 30 in SW 1.6 mph   79 % 0 in
12:36 71.4 °F 64.9 °F 30 in West 1.2 mph 1.2 mph 80 % 0 in
12:41 71.2 °F 64.8 °F 30 in WNW 2.3 mph 2.3 mph 80 % 0 in
12:46 71.1 °F 64.6 °F 30 in NNE 2.4 mph 2.4 mph 80 % 0 in
12:51 71.1 °F 64.6 °F 30 in WSW 2.3 mph 2.3 mph 80 % 0 in
12:56 71.4 °F 64.9 °F 30 in ENE 1.4 mph   80 % 0 in
13:01 71.6 °F 65.1 °F 30 in WNW 1.2 mph   80 % 0 in
13:06 71.8 °F 65.3 °F 30 in SW 2.3 mph   80 % 0 in
13:11 71.8 °F 64.6 °F 30 in SSW 2.3 mph 2.3 mph 78 % 0 in
13:16 71.8 °F 64.2 °F 30 in NNE 1.2 mph 1.2 mph 77 % 0 in
13:21 71.8 °F 64.2 °F 30 in Calm     77 % 0 in
13:26 72.1 °F 64.6 °F 30 in ENE 2.3 mph 2.3 mph 77 % 0 in
13:31 72.1 °F 64.2 °F 30 in ENE 2.3 mph 2.3 mph 76 % 0 in
13:36 72.5 °F 64.6 °F 30 in ENE 3.5 mph 3.5 mph 76 % 0 in
13:41 73 °F 64.9 °F 30 in ENE 3.5 mph 3.5 mph 76 % 0 in
13:46 73 °F 64.6 °F 30 in ESE 4.6 mph 4.6 mph 75 % 0 in
13:51 73 °F 64.6 °F 30 in SE 4.6 mph 4.6 mph 75 % 0 in
13:56 72.9 °F 64.6 °F 30 in ESE 5.8 mph 5.8 mph 75 % 0 in
14:01 72.9 °F 64.6 °F 30 in ESE 5.8 mph 5.8 mph 75 % 0 in
14:06 72.9 °F 64.8 °F 30 in East 6.9 mph 6.9 mph 76 % 0 in
14:11 72.7 °F 64.8 °F 30 in ESE 11.5 mph 11.5 mph 76 % 0 in
14:16 72.5 °F 64.9 °F 30 in ESE 9.2 mph 9.2 mph 77 % 0 in
14:21 72.5 °F 64.9 °F 30 in ESE 9.2 mph 9.2 mph 77 % 0 in
14:26 71.8 °F 64.2 °F 30.1 in SE 9.2 mph 9.2 mph 77 % 0 in
14:31 71.2 °F 63.7 °F 30.1 in ESE 10.4 mph 10.4 mph 77 % 0 in
14:36 70.5 °F 63 °F 30.1 in East 9.2 mph 9.2 mph 77 % 0 in
14:41 70.5 °F 63 °F 30.1 in NNE 5.8 mph 5.8 mph 77 % 0 in
14:46 70.2 °F 62.6 °F 30.1 in ESE 8.1 mph 8.1 mph 77 % 0 in
14:51 69.4 °F 62.6 °F 30.1 in East 4.6 mph 4.6 mph 79 % 0.04 in
14:56 68.9 °F 62.4 °F 30.1 in ENE 3.5 mph 3.5 mph 80 % 0.04 in
15:01 69.1 °F 63 °F 30.1 in ESE 4.6 mph 4.6 mph 81 % 0.04 in
15:06 69.1 °F 63 °F 30.1 in East 2.3 mph 2.3 mph 81 % 0.04 in
15:11 69.3 °F 63.1 °F 30.1 in North 3.5 mph 3.5 mph 81 % 0.09 in
15:16 69.4 °F 63.7 °F 30.1 in Calm     82 % 0.13 in
15:21 68.9 °F 63.1 °F 30.1 in NE 2.3 mph 2.3 mph 82 % 0.13 in
15:26 68.9 °F 63.1 °F 30 in NE 2.3 mph 2.3 mph 82 % 0.21 in
15:31 69.6 °F 64.2 °F 30 in ENE 5.8 mph 5.8 mph 83 % 0.21 in
15:33 69.8 °F 64.4 °F 30 in NNE 5.8 mph 5.8 mph 83 % 0.21 in
15:38 70 °F 64.2 °F 30 in ESE 8.1 mph 8.1 mph 82 % 0.21 in
15:43 70.5 °F 64.4 °F 30.1 in NNE 3.5 mph 3.5 mph 81 % 0.21 in
15:48 70.7 °F 64.2 °F 30.1 in ENE 5.8 mph 5.8 mph 80 % 0.17 in
15:53 71.1 °F 64.6 °F 30.1 in ENE 6.9 mph 6.9 mph 80 % 0.17 in
15:58 71.2 °F 64.8 °F 30.1 in ESE 5.8 mph 5.8 mph 80 % 0.17 in
16:03 71.6 °F 64 °F 30.1 in East 9.2 mph 9.2 mph 77 % 0.17 in
16:08 72 °F 64 °F 30.1 in East 11.5 mph 11.5 mph 76 % 0.12 in
16:13 71.8 °F 63 °F 30.1 in ESE 6.9 mph 6.9 mph 74 % 0.12 in
16:18 71.6 °F 63 °F 30.1 in SSW 10.4 mph 10.4 mph 74 % 0.08 in
16:23 71.2 °F 63 °F 30.1 in East 10.4 mph 10.4 mph 75 % 0.04 in
16:28 71.2 °F 63 °F 30 in NE 10.4 mph 10.4 mph 75 % 0 in
16:33 71.4 °F 63.1 °F 30 in ESE 9.2 mph 9.2 mph 75 % 0 in
16:38 72.1 °F 63.3 °F 30 in East 9.2 mph 9.2 mph 74 % 0 in
16:43 72.7 °F 63.9 °F 30 in ESE 6.9 mph 6.9 mph 74 % 0 in
16:48 72.9 °F 63.7 °F 30 in ESE 9.2 mph 9.2 mph 73 % 0 in
16:53 72.5 °F 63.3 °F 30 in East 9.2 mph 9.2 mph 73 % 0 in
16:58 72.1 °F 63 °F 30 in ESE 9.2 mph 9.2 mph 73 % 0 in
17:03 72.1 °F 63 °F 30 in ESE 5.8 mph 5.9 mph 73 % 0 in
17:08 72.1 °F 63 °F 30 in ESE 9.2 mph 9.2 mph 73 % 0 in
17:13 72 °F 62.8 °F 30 in ESE 8.1 mph 8.1 mph 73 % 0 in
17:18 72.1 °F 63.3 °F 30 in SE 10.4 mph 10.4 mph 74 % 0 in
17:23 71.8 °F 63 °F 30 in SE 10.4 mph 10.4 mph 74 % 0 in
17:33 71.1 °F 62.8 °F 30 in ESE 10.4 mph 10.4 mph 75 % 0 in
17:38 70.7 °F 62.8 °F 30.1 in ESE 11.5 mph 11.5 mph 76 % 0 in
17:43 70.5 °F 62.6 °F 30.1 in SE 8.1 mph 8.1 mph 76 % 0 in
17:48 70.3 °F 62.4 °F 30.1 in East 7.1 mph 7.1 mph 76 % 0 in
17:53 70 °F 62.1 °F 30 in SE 8.5 mph 8.5 mph 76 % 0 in
17:58 69.8 °F 62.2 °F 30 in ENE 8.1 mph 8.1 mph 77 % 0 in
18:03 69.6 °F 62.4 °F 30 in East 12.7 mph 12.7 mph 78 % 0 in
18:08 69.6 °F 62.4 °F 30 in ESE 10.4 mph 10.4 mph 78 % 0 in
18:13 69.4 °F 62.2 °F 30 in East 9.2 mph 9.2 mph 78 % 0 in
18:18 69.6 °F 62.4 °F 30 in ESE 10.7 mph 10.7 mph 78 % 0 in
18:23 69.6 °F 62.4 °F 30.1 in East 5.8 mph 5.8 mph 78 % 0 in
18:28 69.6 °F 62.4 °F 30.1 in East 6.9 mph 6.9 mph 78 % 0 in
18:33 69.4 °F 62.2 °F 30.1 in ESE 5.8 mph 5.8 mph 78 % 0 in
18:38 69.4 °F 62.2 °F 30.1 in East 8.1 mph 8.1 mph 78 % 0 in
18:43 69.4 °F 62.2 °F 30.1 in ENE 6.9 mph 6.9 mph 78 % 0 in
18:48 69.4 °F 62.2 °F 30.1 in SE 5.8 mph 5.8 mph 78 % 0 in
18:53 69.4 °F 62.2 °F 30.1 in ESE 5.8 mph 5.8 mph 78 % 0 in
18:58 69.4 °F 62.2 °F 30.1 in SE 7.4 mph 7.4 mph 78 % 0 in
19:03 69.3 °F 62.1 °F 30.1 in East 6.9 mph 6.9 mph 78 % 0 in
19:08 69.1 °F 61.9 °F 30.1 in East 8.1 mph 8.1 mph 78 % 0 in
19:13 69.3 °F 62.1 °F 30.1 in East 6.9 mph 6.9 mph 78 % 0 in
19:18 69.1 °F 61.9 °F 30.1 in NE 9.2 mph 9.2 mph 78 % 0 in
19:23 69.1 °F 62.2 °F 30.1 in East 7.8 mph 7.8 mph 79 % 0 in
19:28 68.9 °F 62.1 °F 30.1 in SE 7.1 mph 7.1 mph 79 % 0 in
19:33 68.9 °F 62.1 °F 30.1 in NE 6 mph 6 mph 79 % 0 in
19:38 68.9 °F 61.9 °F 30.1 in NNE 7.8 mph 7.8 mph 78 % 0 in
19:43 68.7 °F 61.5 °F 30.1 in ENE 8.1 mph 8.1 mph 78 % 0 in
19:48 68.7 °F 61.5 °F 30.1 in SE 6.9 mph 6.9 mph 78 % 0 in
19:53 68.7 °F 61.5 °F 30.1 in ENE 8.1 mph 8.1 mph 78 % 0 in
19:58 68.5 °F 61.3 °F 30.1 in ESE 8.1 mph 8.1 mph 78 % 0 in
20:03 68.5 °F 61.3 °F 30.1 in ESE 6.9 mph 6.9 mph 78 % 0 in
20:08 68.5 °F 61.3 °F 30.1 in East 5.8 mph 5.8 mph 78 % 0 in
20:13 68.5 °F 61.3 °F 30.1 in NE 5.8 mph 5.8 mph 78 % 0 in
20:18 68.4 °F 61.2 °F 30.1 in ESE 5.4 mph 5.4 mph 78 % 0 in
20:20 66.9 °F 60.3 °F 30.1 in North 1 mph 1 mph 79 % 0 in
20:23 68.4 °F 61.2 °F 30.1 in East 4.3 mph 4.3 mph 78 % 0 in
20:28 68.4 °F 61.2 °F 30.1 in ESE 4.6 mph 4.6 mph 78 % 0 in
20:29 68.4 °F 61.2 °F 30.1 in SE 3.5 mph 3.5 mph 78 % 0 in
20:30 66.6 °F 60.3 °F 30.1 in Calm   2 mph 80 % 0 in
20:34 68.4 °F 61.2 °F 30.1 in SE 5.9 mph 5.9 mph 78 % 0 in
20:39 68.4 °F 61.2 °F 30.1 in ENE 4.6 mph 4.6 mph 78 % 0 in
20:40 66.2 °F 59.7 °F 30.1 in Calm     80 % 0 in
20:44 68.4 °F 61.2 °F 30.1 in SSE 4.9 mph 4.9 mph 78 % 0 in
20:49 68.4 °F 61.2 °F 30.1 in ESE 4.6 mph 4.6 mph 78 % 0 in
20:50 66 °F 60.4 °F 30.1 in Calm     82 % 0 in
20:54 68.4 °F 61 °F 30.1 in ESE 4.6 mph 4.6 mph 77 % 0 in
20:59 68.4 °F 61 °F 30.1 in East 8.1 mph 8.1 mph 77 % 0 in
21:00 65.7 °F 60.1 °F 30.1 in Calm     82 % 0 in
21:04 68.4 °F 61 °F 30.1 in SE 8.1 mph 8.1 mph 77 % 0 in
21:09 68.5 °F 61 °F 30.1 in ENE 5.8 mph 5.8 mph 77 % 0 in
21:10 65.5 °F 59.7 °F 30.1 in Calm     82 % 0 in
21:14 68.5 °F 61 °F 30.1 in ESE 4.6 mph 4.6 mph 77 % 0 in
21:19 68.5 °F 61 °F 30.1 in East 3.5 mph 3.5 mph 77 % 0 in
21:20 65.3 °F 60.1 °F 30.1 in Calm     83 % 0 in
21:24 68.5 °F 61 °F 30.1 in East 4.9 mph 4.9 mph 77 % 0 in
21:29 68.5 °F 61 °F 30.1 in NE 4.6 mph 4.6 mph 77 % 0 in
21:30 65.1 °F 59.7 °F 30.1 in Calm     83 % 0 in
21:34 68.4 °F 61 °F 30.1 in East 2.3 mph 2.3 mph 77 % 0 in
21:39 68.4 °F 61 °F 30.1 in NNE 1.4 mph 1.4 mph 77 % 0 in
21:40 64.8 °F 59.5 °F 30.1 in NNE 1 mph 2 mph 83 % 0 in
21:44 68.4 °F 61 °F 30.1 in NE 2.3 mph 2.3 mph 77 % 0 in
21:45 68.4 °F 61 °F 30.1 in NE 2.3 mph 2.3 mph 77 % 0 in
21:50 68.4 °F 61 °F 30.1 in Calm     77 % 0 in
21:55 68.4 °F 60.4 °F 30.1 in ENE 1.2 mph 1.4 mph 76 % 0 in
22:00 68.4 °F 60.4 °F 30.1 in NE 2.3 mph 2.3 mph 76 % 0 in
22:05 68.4 °F 60.4 °F 30.1 in East 2.3 mph 2.3 mph 76 % 0 in
22:10 68.4 °F 61 °F 30.1 in NE 3.5 mph 3.5 mph 77 % 0 in
22:15 68.4 °F 61 °F 30.1 in NNE 3.5 mph 3.5 mph 77 % 0 in
22:20 68.2 °F 60.3 °F 30.1 in NE 2.3 mph 2.3 mph 76 % 0 in
22:25 68.4 °F 60.4 °F 30.1 in NE 1.2 mph 1.2 mph 76 % 0 in
22:30 68.4 °F 60.4 °F 30.1 in NNE 2.3 mph 2.3 mph 76 % 0 in
22:35 68.4 °F 60.4 °F 30.1 in East 1.6 mph 1.6 mph 76 % 0 in
22:40 68.4 °F 60.4 °F 30.1 in East 2.3 mph 2.3 mph 76 % 0 in
22:45 68.4 °F 60.4 °F 30.1 in ESE 1.2 mph 1.2 mph 76 % 0 in
22:50 68.4 °F 61 °F 30.1 in WSW 1.2 mph 1.2 mph 77 % 0 in
22:55 68.2 °F 60.6 °F 30.1 in WSW 1.6 mph 1.6 mph 77 % 0 in
23:00 68.2 °F 60.6 °F 30.1 in WSW 1.4 mph 1.4 mph 77 % 0 in
23:05 68 °F 60.4 °F 30.1 in Calm     77 % 0 in
23:10 68 °F 61 °F 30.1 in Calm     78 % 0 in
23:15 68 °F 61 °F 30.1 in Calm     78 % 0 in
23:20 68 °F 61 °F 30.1 in NNE 2.3 mph 2.3 mph 78 % 0 in
23:25 67.8 °F 60.6 °F 30.1 in NNE 1.2 mph 1.2 mph 78 % 0 in
23:30 67.8 °F 60.6 °F 30.1 in North 1.2 mph   78 % 0 in
23:35 67.6 °F 60.4 °F 30.1 in NNE 1.2 mph   78 % 0 in
23:40 67.6 °F 60.4 °F 30.1 in NNE 2.3 mph 2.3 mph 78 % 0 in
23:45 67.6 °F 60.4 °F 30.1 in NNE 1.4 mph 1.4 mph 78 % 0 in
23:50 67.6 °F 60.4 °F 30.1 in Calm     78 % 0 in
23:55 67.5 °F 60.4 °F 30.1 in NNE 1.2 mph   78 % 0 in
Meteo Sesrovires
Elogis d' Weather Underground - 3.75 mb

Guio original per  Jim McMurry - jmcmurry@mwt.net Adaptat per a la plantilla per  Wim van der Kuil - Leuven-Template.eu

Trobareu la nostra informacio del temps tambe a:

Weather Underground

AWEKAS